CheckWX is a tool to help pilots better visualize weather data.  It is not intended as a substitute for an official pre-flight weather briefing.

09:08:18 UTC

KHFF METAR
Mackall AAF Airport
Camp Mackall, North Carolina, USA
Current

12 mins ago

KHFF 210856Z AUTO 00000KT 10SM CLR 11/10 A3028 RMK AO2 SLP268 T01090102 55004 $
Observed
Sep-21 @ 08:56 UTC
Visibility
10 SM
Flight Rules
VFR
Cloud Levels
  • Clear skies
Temperature
11°C / 52°F
Dewpoint
10°C / 50°F
Humidity
94%
Altimeter
30.28" Hg
Pressure
1025.42 hPa
Previous

1 hour ago

KHFF 210756Z AUTO 00000KT 10SM CLR 11/10 A3028 RMK AO2 SLP268 T01110104 $
Observed
Sep-21 @ 07:56 UTC
Visibility
10 SM
Flight Rules
VFR
Cloud Levels
  • Clear skies
Temperature
11°C / 52°F
Dewpoint
10°C / 50°F
Humidity
94%
Altimeter
30.28" Hg
Pressure
1025.42 hPa
Previous

2 hours ago

KHFF 210656Z AUTO 00000KT 10SM CLR 12/11 A3028 RMK AO2 SLP268 T01160106 $
Observed
Sep-21 @ 06:56 UTC
Visibility
10 SM
Flight Rules
VFR
Cloud Levels
  • Clear skies
Temperature
12°C / 54°F
Dewpoint
11°C / 52°F
Humidity
94%
Altimeter
30.28" Hg
Pressure
1025.42 hPa